Time;durP1;ratioP1;P1;durP2;ratioP2;P2;SDS_P1;SDS_P2;PMS_P1;PMS_P2;Temp;Humidity;BMP_temperature;BMP_pressure;BME280_temperature;BME280_humidity;BME280_pressure;Samples;Min_cycle;Max_cycle;Signal;HPM_P1;HPM_P2
2022/07/23 00:00:00;;;;;;;17.90;16.00;;;18.00;76.40;;;;;;5124975;28;20635;-83
2022/07/23 00:02:26;;;;;;;19.80;17.13;;;18.00;76.50;;;;;;5118308;28;20177;-83
2022/07/23 00:04:55;;;;;;;19.97;16.73;;;18.00;80.00;;;;;;5107593;28;20170;-83
2022/07/23 00:07:21;;;;;;;18.13;16.17;;;18.00;80.10;;;;;;5099817;28;20171;-82
2022/07/23 00:09:46;;;;;;;17.83;15.50;;;18.00;80.70;;;;;;5101518;28;20252;-83
2022/07/23 00:12:12;;;;;;;18.20;16.37;;;18.00;81.40;;;;;;5099795;28;20174;-83
2022/07/23 00:14:38;;;;;;;18.70;16.77;;;17.90;83.30;;;;;;5118663;28;20652;-82
2022/07/23 00:17:03;;;;;;;19.13;16.63;;;17.90;85.10;;;;;;5125134;28;20171;-83
2022/07/23 00:19:29;;;;;;;19.37;17.13;;;18.00;85.80;;;;;;5109848;28;20203;-82
2022/07/23 00:21:55;;;;;;;19.80;17.30;;;17.90;86.70;;;;;;5119320;28;20507;-84
2022/07/23 00:24:21;;;;;;;18.87;16.37;;;17.80;90.70;;;;;;5099849;28;20179;-82
2022/07/23 00:26:47;;;;;;;20.90;17.07;;;17.80;91.00;;;;;;5099367;28;20170;-84
2022/07/23 00:29:12;;;;;;;19.20;17.30;;;17.70;91.20;;;;;;5119788;28;20601;-83
2022/07/23 00:31:38;;;;;;;19.83;17.93;;;17.80;90.80;;;;;;5100290;28;20178;-82
2022/07/23 00:34:04;;;;;;;20.40;18.30;;;17.80;90.10;;;;;;5099651;28;20181;-83
2022/07/23 00:36:31;;;;;;;21.77;17.73;;;17.80;90.40;;;;;;5117269;28;20532;-81
2022/07/23 00:38:57;;;;;;;18.70;16.90;;;17.70;90.90;;;;;;5106409;28;20234;-83
2022/07/23 00:41:23;;;;;;;20.17;17.80;;;17.70;91.10;;;;;;5105457;28;20173;-82
2022/07/23 00:43:48;;;;;;;21.93;18.20;;;17.70;91.70;;;;;;5104908;28;20544;-82
2022/07/23 00:46:22;;;;;;;21.37;18.03;;;17.60;92.00;;;;;;5099535;28;20213;-82
2022/07/23 00:48:48;;;;;;;18.83;17.03;;;17.60;92.60;;;;;;5118340;28;20719;-82
2022/07/23 00:51:18;;;;;;;19.67;17.63;;;17.60;92.90;;;;;;5100180;28;20274;-82
2022/07/23 00:53:45;;;;;;;21.30;17.90;;;17.60;93.40;;;;;;5099396;28;20168;-82
2022/07/23 00:56:11;;;;;;;20.13;18.03;;;17.50;92.90;;;;;;5098774;28;20171;-82
2022/07/23 00:58:39;;;;;;;20.43;18.17;;;17.50;93.60;;;;;;5117999;28;20171;-83
2022/07/23 01:01:05;;;;;;;19.93;17.57;;;17.50;93.80;;;;;;5098656;28;20258;-82
2022/07/23 01:03:31;;;;;;;19.83;17.93;;;17.50;93.80;;;;;;5098134;28;20210;-83
2022/07/23 01:05:57;;;;;;;21.47;18.13;;;17.50;94.00;;;;;;5098450;28;20182;-82
2022/07/23 01:08:24;;;;;;;19.23;16.93;;;17.50;93.80;;;;;;5099406;28;20635;-82
2022/07/23 01:10:51;;;;;;;19.90;17.90;;;17.40;94.20;;;;;;5117618;28;20536;-82
2022/07/23 01:13:17;;;;;;;20.13;18.13;;;17.40;94.50;;;;;;5116848;28;20629;-82
2022/07/23 01:15:42;;;;;;;20.97;18.77;;;17.40;94.60;;;;;;5098428;28;20240;-82
2022/07/23 01:18:12;;;;;;;19.77;17.87;;;17.40;94.50;;;;;;5081774;28;20171;-83
2022/07/23 01:20:38;;;;;;;19.53;16.30;;;17.40;94.40;;;;;;5099620;28;20266;-83
2022/07/23 01:23:05;;;;;;;19.70;17.60;;;17.40;94.60;;;;;;5098765;28;20577;-82
2022/07/23 01:25:31;;;;;;;19.37;17.27;;;17.30;95.50;;;;;;5098718;28;20186;-83
2022/07/23 01:27:58;;;;;;;19.77;17.47;;;17.30;95.20;;;;;;5116637;28;20210;-82
2022/07/23 01:30:24;;;;;;;20.73;18.47;;;17.30;95.30;;;;;;5099166;28;20212;-83
2022/07/23 01:32:50;;;;;;;20.47;17.07;;;17.30;94.70;;;;;;5097712;28;20256;-84
2022/07/23 01:35:17;;;;;;;22.07;18.33;;;17.30;94.70;;;;;;5116215;28;20258;-82
2022/07/23 01:37:43;;;;;;;19.43;17.27;;;17.30;95.60;;;;;;5080981;28;20178;-83
2022/07/23 01:40:09;;;;;;;19.23;17.23;;;17.30;94.70;;;;;;5099103;28;20178;-82
2022/07/23 01:42:36;;;;;;;20.17;16.70;;;17.20;94.10;;;;;;5116078;28;20178;-82
2022/07/23 01:45:02;;;;;;;20.47;18.37;;;17.20;93.40;;;;;;5098140;28;20621;-82
2022/07/23 01:47:27;;;;;;;23.10;18.00;;;17.20;94.10;;;;;;5098270;28;20191;-82
2022/07/23 01:49:53;;;;;;;19.57;17.60;;;17.20;94.40;;;;;;5121598;28;20220;-80
2022/07/23 01:52:19;;;;;;;19.57;17.47;;;17.10;93.90;;;;;;5119748;28;20159;-81
2022/07/23 01:54:45;;;;;;;19.73;17.83;;;17.10;94.50;;;;;;5137508;28;20171;-81
2022/07/23 01:57:12;;;;;;;19.30;16.83;;;17.10;94.80;;;;;;5121817;28;20166;-82
2022/07/23 01:59:40;;;;;;;19.37;16.73;;;17.10;94.20;;;;;;5131303;28;20170;-81
2022/07/23 02:02:07;;;;;;;19.23;17.23;;;17.10;94.90;;;;;;5123281;28;20161;-83
2022/07/23 02:04:36;;;;;;;21.60;17.53;;;17.20;94.30;;;;;;5126345;28;20171;-82
2022/07/23 02:07:40;;;;;;;20.00;17.37;;;17.20;93.50;;;;;;5102360;28;20209;-83
2022/07/23 02:10:15;;;;;;;17.73;16.00;;;17.20;93.40;;;;;;5116748;28;20187;-82
2022/07/23 02:12:41;;;;;;;19.37;16.77;;;17.10;92.60;;;;;;5115368;28;20154;-82
2022/07/23 02:15:07;;;;;;;20.37;18.20;;;17.10;93.70;;;;;;5097072;28;20200;-82
2022/07/23 02:17:32;;;;;;;19.20;17.07;;;17.10;93.50;;;;;;5115189;28;20168;-82
2022/07/23 02:19:58;;;;;;;19.37;17.37;;;17.10;93.50;;;;;;5120920;28;20213;-82
2022/07/23 02:22:24;;;;;;;19.77;16.87;;;17.00;94.10;;;;;;5132842;28;20174;-82
2022/07/23 02:24:50;;;;;;;20.07;18.00;;;17.00;94.40;;;;;;5122086;28;20166;-81
2022/07/23 02:27:16;;;;;;;19.83;17.53;;;17.00;95.30;;;;;;5122679;28;20179;-81
2022/07/23 02:29:42;;;;;;;18.90;16.90;;;17.00;95.30;;;;;;5118571;28;20205;-82
2022/07/23 02:32:11;;;;;;;19.40;17.40;;;17.00;94.60;;;;;;5124750;28;20602;-84
2022/07/23 02:34:47;;;;;;;21.80;18.40;;;17.00;94.90;;;;;;5097958;28;20174;-82
2022/07/23 02:37:16;;;;;;;20.00;18.00;;;16.90;95.00;;;;;;5106316;28;20177;-82
2022/07/23 02:39:42;;;;;;;20.63;18.53;;;16.90;94.90;;;;;;5115130;28;20261;-82
2022/07/23 02:42:08;;;;;;;20.77;18.20;;;16.90;95.60;;;;;;5118417;28;20175;-82
2022/07/23 02:44:37;;;;;;;21.10;18.63;;;16.90;96.20;;;;;;5114512;28;20183;-82
2022/07/23 02:47:03;;;;;;;20.03;17.77;;;17.00;96.10;;;;;;5091238;28;20195;-83
2022/07/23 02:49:36;;;;;;;20.40;17.73;;;17.00;95.90;;;;;;5104413;28;20729;-82
2022/07/23 02:52:10;;;;;;;21.00;17.30;;;17.00;96.10;;;;;;5102382;28;20618;-83
2022/07/23 02:54:37;;;;;;;20.07;17.60;;;16.80;96.20;;;;;;5118983;28;20196;-82
2022/07/23 02:57:04;;;;;;;20.57;17.40;;;16.80;96.90;;;;;;5096284;28;20173;-83
2022/07/23 02:59:29;;;;;;;19.50;16.17;;;16.80;97.60;;;;;;5097357;28;20608;-82
2022/07/23 03:01:55;;;;;;;18.87;16.53;;;17.00;97.10;;;;;;5125820;28;20170;-82
2022/07/23 03:04:21;;;;;;;18.83;16.93;;;17.10;96.20;;;;;;5109855;28;20170;-83
2022/07/23 03:06:46;;;;;;;18.97;17.07;;;17.20;94.20;;;;;;5104160;28;20224;-82
2022/07/23 03:09:13;;;;;;;19.40;17.27;;;17.40;92.40;;;;;;5116531;28;20548;-83
2022/07/23 03:11:39;;;;;;;18.77;16.60;;;17.50;90.60;;;;;;5097012;28;20275;-82
2022/07/23 03:14:06;;;;;;;17.57;15.73;;;17.40;87.10;;;;;;5097057;28;20582;-83
2022/07/23 03:16:32;;;;;;;19.03;17.07;;;17.50;88.50;;;;;;5095945;28;20183;-81
2022/07/23 03:18:57;;;;;;;20.50;16.20;;;17.60;84.60;;;;;;5117107;28;20266;-82
2022/07/23 03:21:25;;;;;;;20.67;17.93;;;17.80;83.50;;;;;;5115687;28;20220;-82
2022/07/23 03:23:51;;;;;;;19.37;16.70;;;17.80;78.60;;;;;;5115131;28;20173;-81
2022/07/23 03:26:16;;;;;;;18.30;16.40;;;17.80;77.60;;;;;;5095956;28;20167;-80
2022/07/23 03:28:42;;;;;;;19.50;16.93;;;17.80;76.20;;;;;;5096611;28;20323;-82
2022/07/23 03:31:08;;;;;;;18.07;16.37;;;17.70;77.30;;;;;;5096757;28;20535;-84
2022/07/23 03:33:34;;;;;;;19.50;16.73;;;17.60;79.50;;;;;;5118656;28;20159;-82
2022/07/23 03:36:00;;;;;;;17.80;15.50;;;17.60;80.80;;;;;;5121318;28;20170;-81
2022/07/23 03:38:29;;;;;;;20.93;16.87;;;17.50;79.00;;;;;;5097405;28;20167;-82
2022/07/23 03:40:54;;;;;;;18.27;16.43;;;17.50;80.10;;;;;;5114634;28;20264;-83
2022/07/23 03:43:20;;;;;;;18.20;15.93;;;17.40;83.60;;;;;;5095823;28;20214;-82
2022/07/23 03:45:45;;;;;;;19.73;17.73;;;17.30;87.70;;;;;;5095867;28;20278;-81
2022/07/23 03:48:11;;;;;;;18.23;16.33;;;17.30;87.80;;;;;;5097003;28;20279;-82
2022/07/23 03:50:37;;;;;;;19.57;17.03;;;17.20;90.10;;;;;;5096360;28;20675;-82
2022/07/23 03:53:03;;;;;;;18.20;16.17;;;17.30;89.60;;;;;;5095777;28;20169;-81
2022/07/23 03:55:29;;;;;;;18.53;16.43;;;17.10;91.20;;;;;;5095883;28;20266;-82
2022/07/23 03:57:54;;;;;;;18.67;16.77;;;17.00;91.80;;;;;;5095419;28;20178;-82
2022/07/23 04:00:20;;;;;;;19.70;17.60;;;16.80;93.70;;;;;;5097469;28;20173;-81
2022/07/23 04:02:45;;;;;;;19.00;16.97;;;16.70;95.20;;;;;;5095659;28;20171;-81
2022/07/23 04:05:11;;;;;;;20.57;17.40;;;16.70;96.10;;;;;;5096075;28;20623;-81
2022/07/23 04:07:37;;;;;;;19.30;17.30;;;16.70;96.40;;;;;;5114705;28;20516;-81
2022/07/23 04:10:03;;;;;;;22.13;18.13;;;16.70;96.80;;;;;;5100597;28;20271;-80
2022/07/23 04:12:29;;;;;;;20.73;17.30;;;16.70;96.20;;;;;;5117129;28;20191;-83
2022/07/23 04:14:56;;;;;;;20.17;17.93;;;16.80;95.90;;;;;;5118153;28;20529;-82
2022/07/23 04:17:22;;;;;;;22.33;18.67;;;16.80;95.00;;;;;;5098690;28;20182;-83
2022/07/23 04:19:48;;;;;;;20.33;17.07;;;17.00;95.20;;;;;;5102259;28;20202;-82
2022/07/23 04:22:14;;;;;;;19.03;17.03;;;16.90;94.30;;;;;;5099048;28;20167;-81
2022/07/23 04:24:39;;;;;;;20.20;16.93;;;16.90;94.90;;;;;;5117942;28;20246;-82
2022/07/23 04:27:05;;;;;;;18.97;16.97;;;17.00;93.80;;;;;;5117026;28;20177;-83
2022/07/23 04:29:31;;;;;;;18.23;16.33;;;17.00;92.60;;;;;;5100620;28;20211;-83
2022/07/23 04:31:57;;;;;;;18.83;15.33;;;17.10;91.50;;;;;;5098915;28;20267;-82
2022/07/23 04:34:26;;;;;;;18.30;15.97;;;17.00;91.50;;;;;;5118115;28;20176;-83
2022/07/23 04:36:52;;;;;;;17.43;15.63;;;17.00;91.80;;;;;;5099031;28;20649;-83
2022/07/23 04:39:18;;;;;;;16.90;15.17;;;17.00;92.00;;;;;;5099838;28;20206;-83
2022/07/23 04:41:44;;;;;;;16.33;14.50;;;16.90;92.60;;;;;;5098548;28;20270;-82
2022/07/23 04:44:09;;;;;;;17.73;15.13;;;17.00;93.30;;;;;;5117733;28;20175;-81
2022/07/23 04:46:35;;;;;;;17.90;16.00;;;17.00;92.30;;;;;;5098401;28;20199;-82
2022/07/23 04:49:02;;;;;;;16.07;14.37;;;17.00;91.70;;;;;;5119291;28;20546;-82
2022/07/23 04:51:28;;;;;;;18.70;15.80;;;17.00;90.60;;;;;;5100340;28;20183;-82
2022/07/23 04:53:55;;;;;;;16.30;14.47;;;17.10;90.50;;;;;;5099660;28;20208;-83
2022/07/23 04:56:21;;;;;;;18.53;15.73;;;17.10;90.20;;;;;;5099087;28;20189;-82
2022/07/23 04:58:48;;;;;;;17.43;15.23;;;17.20;90.50;;;;;;5117980;28;20175;-82
2022/07/23 05:01:15;;;;;;;16.97;15.17;;;17.20;89.90;;;;;;5099174;28;20178;-82
2022/07/23 05:03:41;;;;;;;19.83;15.70;;;17.40;86.70;;;;;;5098996;28;20629;-81
2022/07/23 05:06:06;;;;;;;16.10;14.50;;;17.40;83.60;;;;;;5099592;28;20274;-81
2022/07/23 05:08:32;;;;;;;16.43;14.73;;;17.40;83.40;;;;;;5137921;28;20155;-81
2022/07/23 05:10:59;;;;;;;16.20;14.50;;;17.60;81.50;;;;;;5124069;28;20244;-80
2022/07/23 05:13:26;;;;;;;16.20;14.57;;;17.60;77.10;;;;;;5133041;28;20187;-81
2022/07/23 05:15:52;;;;;;;16.50;14.73;;;17.60;76.50;;;;;;5101346;28;20181;-82
2022/07/23 05:18:21;;;;;;;16.17;14.47;;;17.70;75.00;;;;;;5099758;28;20250;-81
2022/07/23 05:20:46;;;;;;;17.27;15.37;;;17.70;72.40;;;;;;5121444;28;20161;-80
2022/07/23 05:23:12;;;;;;;16.17;14.47;;;17.70;74.80;;;;;;5123490;28;20180;-81
2022/07/23 05:25:38;;;;;;;16.33;14.20;;;17.70;73.40;;;;;;5120812;28;20182;-81
2022/07/23 05:28:03;;;;;;;16.63;14.87;;;17.60;78.40;;;;;;5123719;28;20173;-82
2022/07/23 05:30:29;;;;;;;18.67;15.53;;;17.60;82.80;;;;;;5130666;28;20212;-82
2022/07/23 05:33:09;;;;;;;16.80;14.07;;;17.70;82.20;;;;;;5118388;28;20162;-81
2022/07/23 05:35:34;;;;;;;18.97;15.57;;;17.90;77.10;;;;;;5122542;28;20576;-83
2022/07/23 05:38:00;;;;;;;17.43;15.67;;;17.90;71.20;;;;;;5110761;28;20213;-81
2022/07/23 05:40:26;;;;;;;19.93;15.53;;;18.00;69.70;;;;;;5120076;28;20182;-78
2022/07/23 05:42:51;;;;;;;17.63;15.70;;;18.00;71.20;;;;;;5139019;28;20172;-80
2022/07/23 05:45:17;;;;;;;17.10;15.27;;;18.10;68.40;;;;;;5140973;28;20171;-80
2022/07/23 05:47:48;;;;;;;17.77;15.67;;;18.30;66.60;;;;;;5140788;28;20178;-82
2022/07/23 05:50:20;;;;;;;21.97;15.63;;;18.50;61.10;;;;;;5140369;28;20199;-82
2022/07/23 05:52:49;;;;;;;17.30;15.43;;;18.50;57.60;;;;;;5113082;28;20183;-82
2022/07/23 05:55:36;;;;;;;15.73;14.33;;;18.40;55.30;;;;;;5116276;28;20340;-83
2022/07/23 05:58:03;;;;;;;19.37;17.27;;;18.60;54.60;;;;;;5097511;28;20212;-82
2022/07/23 06:00:30;;;;;;;18.90;16.90;;;18.60;49.70;;;;;;5115520;28;20164;-81
2022/07/23 06:02:55;;;;;;;17.97;15.03;;;18.60;51.00;;;;;;5115447;28;20179;-82
2022/07/23 06:05:21;;;;;;;18.23;16.17;;;18.60;51.70;;;;;;5115741;28;20172;-83
2022/07/23 06:07:47;;;;;;;16.93;15.07;;;18.50;53.30;;;;;;5096959;28;20193;-83
2022/07/23 06:10:13;;;;;;;15.90;14.30;;;18.70;54.00;;;;;;5115788;28;20293;-82
2022/07/23 06:12:40;;;;;;;15.90;14.30;;;18.60;51.10;;;;;;5096922;28;20170;-82
2022/07/23 06:15:07;;;;;;;17.97;15.27;;;18.60;49.40;;;;;;5097380;28;20213;-83
2022/07/23 06:17:32;;;;;;;16.27;14.57;;;18.60;51.50;;;;;;5096245;28;20615;-81
2022/07/23 06:19:58;;;;;;;16.33;14.63;;;18.60;50.50;;;;;;5097651;28;20225;-82
2022/07/23 06:22:24;;;;;;;16.73;14.93;;;18.50;51.40;;;;;;5114796;28;20210;-82
2022/07/23 06:24:51;;;;;;;17.00;15.30;;;18.60;53.50;;;;;;5096534;28;20196;-83
2022/07/23 06:27:18;;;;;;;19.93;15.43;;;18.60;50.70;;;;;;5114908;28;20182;-82
2022/07/23 06:29:43;;;;;;;19.77;14.70;;;18.70;48.90;;;;;;5125515;28;20732;-81
2022/07/23 06:32:09;;;;;;;17.60;14.77;;;18.60;52.30;;;;;;5124235;28;20169;-81
2022/07/23 06:34:35;;;;;;;14.77;13.23;;;18.80;50.50;;;;;;5113232;28;20172;-81
2022/07/23 06:37:01;;;;;;;15.33;13.73;;;19.00;43.20;;;;;;5110949;28;20206;-82
2022/07/23 06:39:28;;;;;;;16.20;13.93;;;19.10;38.20;;;;;;5097798;28;20173;-82
2022/07/23 06:42:00;;;;;;;16.80;14.40;;;19.20;34.90;;;;;;5115878;28;20302;-82
2022/07/23 06:44:27;;;;;;;18.40;14.63;;;19.40;29.90;;;;;;5114890;28;20237;-82
2022/07/23 06:46:52;;;;;;;17.00;14.50;;;19.40;28.00;;;;;;5131072;28;20216;-82
2022/07/23 06:49:20;;;;;;;15.83;14.07;;;19.40;26.60;;;;;;5117096;28;20695;-82
2022/07/23 06:51:45;;;;;;;16.07;13.67;;;19.50;25.90;;;;;;5096148;28;20184;-82
2022/07/23 06:54:11;;;;;;;15.43;13.90;;;19.50;24.40;;;;;;5096125;28;20178;-82
2022/07/23 06:56:37;;;;;;;16.03;13.90;;;19.50;27.30;;;;;;5114478;28;20639;-82
2022/07/23 06:59:03;;;;;;;15.37;12.90;;;19.60;23.40;;;;;;5096328;28;20178;-82
2022/07/23 07:01:28;;;;;;;15.90;14.10;;;19.50;21.60;;;;;;5114360;28;20161;-83
2022/07/23 07:03:54;;;;;;;15.37;13.77;;;19.60;23.80;;;;;;5114633;28;20232;-83
2022/07/23 07:06:20;;;;;;;16.07;13.80;;;19.50;22.90;;;;;;5114695;28;20177;-82
2022/07/23 07:08:46;;;;;;;20.67;14.30;;;19.50;24.40;;;;;;5114339;28;20194;-82
2022/07/23 07:11:12;;;;;;;15.53;13.93;;;19.80;22.00;;;;;;5096232;28;20176;-82
2022/07/23 07:13:38;;;;;;;16.90;14.00;;;19.90;18.20;;;;;;5114494;28;20173;-83
2022/07/23 07:16:04;;;;;;;15.00;12.97;;;19.90;13.90;;;;;;5095851;28;20179;-83
2022/07/23 07:18:30;;;;;;;15.03;13.00;;;20.00;9.50;;;;;;5096280;28;20241;-82
2022/07/23 07:20:57;;;;;;;15.10;12.77;;;20.10;8.60;;;;;;5095636;28;20174;-83
2022/07/23 07:23:23;;;;;;;15.27;12.87;;;20.20;2.50;;;;;;5096052;28;20181;-82
2022/07/23 07:25:48;;;;;;;16.87;11.97;;;20.30;1.00;;;;;;5095843;28;20178;-83
2022/07/23 07:28:14;;;;;;;13.43;12.03;;;20.60;1.00;;;;;;5096317;28;20170;-82
2022/07/23 07:30:40;;;;;;;15.33;13.13;;;20.50;1.00;;;;;;5096350;28;20213;-83
2022/07/23 07:33:06;;;;;;;14.27;12.30;;;20.50;1.00;;;;;;5096343;28;20178;-82
2022/07/23 07:35:32;;;;;;;13.67;12.10;;;20.60;1.00;;;;;;5113885;28;20180;-81
2022/07/23 07:37:59;;;;;;;15.07;12.70;;;20.50;1.00;;;;;;5098340;28;20174;-81
2022/07/23 07:40:26;;;;;;;14.60;12.53;;;20.40;1.00;;;;;;5098249;28;20577;-82
2022/07/23 07:42:53;;;;;;;14.23;12.73;;;20.40;1.00;;;;;;5098624;28;20167;-81
2022/07/23 07:45:23;;;;;;;13.03;11.67;;;20.50;1.00;;;;;;5121457;28;20169;-82
2022/07/23 07:47:49;;;;;;;13.73;12.13;;;20.70;1.00;;;;;;5133694;28;20246;-83
2022/07/23 07:50:15;;;;;;;17.07;12.77;;;20.80;1.00;;;;;;5110218;28;20222;-82
2022/07/23 07:52:41;;;;;;;13.30;11.90;;;21.00;1.00;;;;;;5105326;28;20178;-81
2022/07/23 07:55:10;;;;;;;14.23;12.80;;;21.00;1.00;;;;;;5102292;28;20204;-82
2022/07/23 07:57:37;;;;;;;14.00;12.60;;;21.00;1.00;;;;;;5100710;28;20224;-83
2022/07/23 08:00:05;;;;;;;15.33;11.33;;;21.20;1.00;;;;;;5100502;28;20579;-82
2022/07/23 08:02:43;;;;;;;13.83;12.37;;;21.50;1.00;;;;;;5118985;28;20195;-82
2022/07/23 08:05:09;;;;;;;14.37;11.30;;;21.60;1.00;;;;;;5106362;28;20172;-82
2022/07/23 08:07:35;;;;;;;16.57;13.03;;;21.50;1.00;;;;;;5142046;28;20184;-82
2022/07/23 08:10:01;;;;;;;13.57;10.97;;;21.50;1.00;;;;;;5135384;28;20216;-82
2022/07/23 08:12:38;;;;;;;14.10;10.90;;;21.30;1.00;;;;;;5103396;28;20172;-82
2022/07/23 08:15:06;;;;;;;13.30;10.87;;;21.40;1.00;;;;;;5100562;28;20572;-82
2022/07/23 08:17:31;;;;;;;14.23;11.27;;;21.50;1.00;;;;;;5099639;28;20227;-82
2022/07/23 08:19:58;;;;;;;14.80;11.20;;;21.60;1.00;;;;;;5101781;28;20196;-81
2022/07/23 08:22:40;;;;;;;13.20;11.60;;;21.90;1.00;;;;;;5117449;28;20208;-82
2022/07/23 08:25:07;;;;;;;12.80;10.90;;;22.00;1.00;;;;;;5100955;28;20203;-82
2022/07/23 08:27:33;;;;;;;14.00;11.70;;;22.10;1.00;;;;;;5100421;28;20187;-83
2022/07/23 08:29:58;;;;;;;14.13;11.23;;;22.00;1.00;;;;;;5117868;28;20199;-83
2022/07/23 08:32:24;;;;;;;14.00;12.50;;;22.00;1.00;;;;;;5099144;28;20172;-82
2022/07/23 08:34:50;;;;;;;14.77;11.77;;;21.90;1.00;;;;;;5099664;28;20248;-82
2022/07/23 08:37:15;;;;;;;13.80;11.87;;;22.10;1.00;;;;;;5135258;28;20223;-81
2022/07/23 08:39:42;;;;;;;12.57;10.67;;;22.20;1.00;;;;;;5122037;28;20595;-82
2022/07/23 08:42:08;;;;;;;13.00;11.63;;;22.00;1.00;;;;;;5108288;28;20645;-81
2022/07/23 08:44:35;;;;;;;12.30;11.10;;;21.70;1.00;;;;;;5103021;28;20194;-82
2022/07/23 08:47:04;;;;;;;12.47;11.20;;;22.00;1.00;;;;;;5099170;28;20192;-81
2022/07/23 08:49:30;;;;;;;14.13;10.30;;;22.00;1.00;;;;;;5099695;28;20300;-82
2022/07/23 08:51:56;;;;;;;14.03;11.03;;;22.30;1.00;;;;;;5117725;28;20170;-83
2022/07/23 08:54:23;;;;;;;11.60;10.37;;;22.30;1.00;;;;;;5097887;28;20273;-83
2022/07/23 08:56:48;;;;;;;14.13;11.17;;;22.50;1.00;;;;;;5116802;28;20171;-82
2022/07/23 08:59:14;;;;;;;12.40;10.10;;;22.50;1.00;;;;;;5130626;28;20160;-82
2022/07/23 09:01:40;;;;;;;12.00;10.20;;;22.50;1.00;;;;;;5140912;28;20178;-83
2022/07/23 09:04:06;;;;;;;13.20;10.47;;;22.50;1.00;;;;;;5117688;28;20226;-83
2022/07/23 09:06:33;;;;;;;14.03;10.03;;;22.50;1.00;;;;;;5131875;28;20245;-82
2022/07/23 09:09:19;;;;;;;12.70;11.40;;;22.60;1.00;;;;;;5104616;28;20197;-83
2022/07/23 09:12:09;;;;;;;10.73;9.60;;;22.50;1.00;;;;;;5099617;28;20334;-83
2022/07/23 09:14:43;;;;;;;12.03;10.03;;;22.80;1.00;;;;;;5099603;28;20183;-82
2022/07/23 09:17:15;;;;;;;12.47;9.90;;;23.00;1.00;;;;;;5117174;28;20241;-82
2022/07/23 09:19:42;;;;;;;11.93;8.80;;;23.00;1.00;;;;;;5111101;28;20269;-82
2022/07/23 09:22:21;;;;;;;11.40;9.37;;;22.80;1.00;;;;;;5122865;28;20165;-82
2022/07/23 09:25:11;;;;;;;11.43;10.20;;;22.70;1.00;;;;;;5122258;28;20192;-81
2022/07/23 09:27:55;;;;;;;11.47;9.40;;;22.70;1.00;;;;;;5139276;28;20182;-83
2022/07/23 09:30:23;;;;;;;12.57;9.77;;;22.80;1.00;;;;;;5115258;28;20218;-81
2022/07/23 09:33:11;;;;;;;10.10;8.80;;;23.00;1.00;;;;;;5107531;28;20169;-83
2022/07/23 09:35:54;;;;;;;19.87;10.43;;;23.10;1.00;;;;;;5102546;28;20189;-81
2022/07/23 09:38:34;;;;;;;10.43;8.97;;;23.10;1.00;;;;;;5100205;28;20631;-82
2022/07/23 09:41:10;;;;;;;10.80;9.57;;;23.00;1.00;;;;;;5101020;28;20220;-82
2022/07/23 09:43:36;;;;;;;10.17;9.13;;;23.00;1.00;;;;;;5099936;28;20609;-82
2022/07/23 09:46:20;;;;;;;11.57;9.17;;;23.10;1.00;;;;;;5116563;28;20178;-82
2022/07/23 09:48:52;;;;;;;11.83;9.63;;;23.20;1.00;;;;;;5098173;28;20170;-81
2022/07/23 09:51:37;;;;;;;11.17;9.70;;;23.20;99.90;;;;;;5066208;28;20189;-83
2022/07/23 09:54:03;;;;;;;11.37;8.47;;;23.00;99.90;;;;;;5100803;28;20173;-83
2022/07/23 09:56:29;;;;;;;11.80;9.87;;;23.10;99.90;;;;;;5088692;28;20281;-81
2022/07/23 09:59:07;;;;;;;11.10;9.30;;;23.10;99.90;;;;;;5108637;28;20185;-82
2022/07/23 10:01:36;;;;;;;10.27;8.90;;;23.10;99.90;;;;;;5101454;28;20178;-81
2022/07/23 10:04:02;;;;;;;10.97;8.97;;;23.20;99.90;;;;;;5097836;28;20534;-83
2022/07/23 10:06:29;;;;;;;10.70;8.70;;;23.10;99.90;;;;;;5097310;28;20588;-84
2022/07/23 10:08:59;;;;;;;11.27;8.73;;;23.20;99.90;;;;;;5098175;28;20216;-83
2022/07/23 10:11:26;;;;;;;10.53;8.90;;;23.40;99.90;;;;;;5117285;28;20198;-84
2022/07/23 10:13:55;;;;;;;9.87;8.40;;;23.80;99.90;;;;;;5098039;28;20578;-83
2022/07/23 10:16:22;;;;;;;9.13;8.23;;;24.10;99.90;;;;;;5118067;28;20163;-82
2022/07/23 10:18:51;;;;;;;9.30;8.03;;;24.30;65.60;;;;;;5118385;28;20191;-83
2022/07/23 10:21:46;;;;;;;10.50;7.93;;;24.10;1.00;;;;;;5097491;28;20178;-83
2022/07/23 10:24:24;;;;;;;8.63;7.70;;;24.00;1.00;;;;;;5106815;28;20215;-83
2022/07/23 10:27:15;;;;;;;9.50;8.03;;;24.20;1.00;;;;;;5097508;28;20189;-83
2022/07/23 10:29:55;;;;;;;7.87;7.03;;;24.40;1.00;;;;;;5131632;28;20201;-82
2022/07/23 10:32:47;;;;;;;8.50;6.53;;;24.60;99.90;;;;;;5114233;28;20182;-82
2022/07/23 10:35:25;;;;;;;8.03;6.87;;;24.80;99.90;;;;;;5120313;28;20174;-82
2022/07/23 10:38:07;;;;;;;8.00;7.20;;;25.00;1.00;;;;;;5097629;28;20177;-81
2022/07/23 10:40:33;;;;;;;9.70;7.07;;;24.80;1.00;;;;;;5098158;28;20558;-81
2022/07/23 10:43:01;;;;;;;10.67;7.20;;;24.20;34.80;;;;;;5096569;28;20227;-83
2022/07/23 10:45:34;;;;;;;9.47;7.47;;;24.10;99.90;;;;;;5096925;28;20181;-83
2022/07/23 10:48:16;;;;;;;11.87;7.97;;;24.10;99.90;;;;;;5105549;28;20175;-82
2022/07/23 10:50:43;;;;;;;8.53;7.37;;;24.40;99.90;;;;;;5121404;28;20195;-83
2022/07/23 10:53:18;;;;;;;9.00;8.07;;;24.80;99.90;;;;;;5131104;28;20612;-83
2022/07/23 10:55:50;;;;;;;8.67;7.77;;;24.80;1.00;;;;;;5099551;28;20742;-83
2022/07/23 10:58:46;;;;;;;9.47;7.97;;;25.00;1.00;;;;;;5097378;28;20187;-82
2022/07/23 11:01:38;;;;;;;9.50;8.40;;;25.10;99.90;;;;;;5097047;28;20599;-83
2022/07/23 11:04:07;;;;;;;10.63;7.57;;;25.10;86.50;;;;;;5096819;28;20167;-83
2022/07/23 11:07:02;;;;;;;9.67;6.63;;;25.00;99.90;;;;;;5096471;28;20241;-83
2022/07/23 11:09:42;;;;;;;10.17;7.80;;;25.30;1.00;;;;;;5069595;28;20268;-83
2022/07/23 11:12:20;;;;;;;8.27;7.00;;;25.60;99.90;;;;;;5096331;28;20173;-83
2022/07/23 11:14:58;;;;;;;15.40;8.50;;;25.50;94.90;;;;;;5097068;28;20180;-85
2022/07/23 11:17:25;;;;;;;9.37;8.37;;;25.30;99.90;;;;;;5095695;28;20262;-83
2022/07/23 11:20:11;;;;;;;8.77;7.03;;;25.10;29.40;;;;;;5098064;28;20218;-82
2022/07/23 11:22:50;;;;;;;9.83;7.13;;;25.50;1.00;;;;;;5079668;28;20179;-83
2022/07/23 11:25:21;;;;;;;12.57;7.90;;;25.40;1.00;;;;;;5095903;28;20178;-83
2022/07/23 11:27:51;;;;;;;8.37;7.33;;;25.40;1.00;;;;;;5096243;28;20178;-83
2022/07/23 11:30:26;;;;;;;10.67;7.50;;;25.30;1.00;;;;;;5080610;28;20220;-84
2022/07/23 11:32:53;;;;;;;9.97;7.63;;;25.30;99.90;;;;;;5127181;28;20154;-84
2022/07/23 11:35:20;;;;;;;9.00;7.87;;;25.10;1.00;;;;;;5122698;28;20186;-84
2022/07/23 11:37:49;;;;;;;11.27;9.00;;;25.00;99.90;;;;;;5096997;28;20178;-83
2022/07/23 11:40:16;;;;;;;8.93;7.63;;;24.90;99.90;;;;;;5097852;28;20221;-82
2022/07/23 11:43:09;;;;;;;9.80;8.10;;;24.90;99.90;;;;;;5114637;28;20658;-83
2022/07/23 11:45:44;;;;;;;8.87;7.07;;;24.90;99.90;;;;;;5114852;28;20159;-83
2022/07/23 11:48:16;;;;;;;9.23;7.30;;;25.20;1.00;;;;;;5096573;28;20182;-82
2022/07/23 11:50:42;;;;;;;9.43;8.37;;;25.30;1.00;;;;;;5096571;28;20211;-82
2022/07/23 11:53:08;;;;;;;8.90;7.57;;;25.20;1.00;;;;;;5097350;28;20514;-82
2022/07/23 11:55:34;;;;;;;8.50;6.83;;;25.30;1.00;;;;;;5132745;28;20163;-81
2022/07/23 11:58:00;;;;;;;8.97;7.80;;;25.20;99.90;;;;;;5117329;28;20197;-81
2022/07/23 12:00:28;;;;;;;8.40;7.23;;;25.20;99.90;;;;;;5103174;28;20630;-83
2022/07/23 12:03:01;;;;;;;8.67;7.37;;;25.10;99.90;;;;;;5098646;28;20179;-83
2022/07/23 12:05:31;;;;;;;9.97;8.47;;;25.30;99.90;;;;;;5114417;28;20153;-83
2022/07/23 12:07:59;;;;;;;9.70;8.70;;;25.20;99.90;;;;;;5124324;28;20194;-80
2022/07/23 12:10:39;;;;;;;9.57;8.40;;;25.10;99.90;;;;;;5101686;28;20241;-83
2022/07/23 12:13:10;;;;;;;11.00;7.47;;;25.20;99.90;;;;;;5098278;28;20622;-82
2022/07/23 12:15:41;;;;;;;10.50;7.03;;;25.30;99.90;;;;;;5097078;28;20518;-82
2022/07/23 12:18:11;;;;;;;9.43;8.50;;;25.50;99.90;;;;;;5106314;28;20284;-84
2022/07/23 12:20:42;;;;;;;8.97;7.87;;;25.40;1.00;;;;;;5120462;28;20167;-83
2022/07/23 12:23:12;;;;;;;9.23;8.07;;;25.50;99.90;;;;;;5134638;28;20181;-83
2022/07/23 12:25:41;;;;;;;9.50;7.37;;;25.60;1.00;;;;;;5115835;28;20287;-82
2022/07/23 12:28:18;;;;;;;9.80;7.00;;;25.90;99.90;;;;;;5104153;28;20178;-82
2022/07/23 12:30:51;;;;;;;8.07;6.27;;;26.20;1.00;;;;;;5099370;28;20212;-84
2022/07/23 12:33:24;;;;;;;8.77;5.87;;;26.40;1.00;;;;;;5100141;28;20592;-83
2022/07/23 12:35:52;;;;;;;7.60;6.17;;;26.80;1.00;;;;;;5101046;28;20665;-84
2022/07/23 12:38:21;;;;;;;9.57;6.77;;;26.90;1.00;;;;;;5118272;28;20159;-83
2022/07/23 12:40:59;;;;;;;12.07;7.57;;;27.00;1.00;;;;;;5107592;28;20190;-83